createdAt,value
2022-08-17T00:02:13.247Z,100564.84
2022-08-17T00:04:51.557Z,100568.34
2022-08-17T00:07:18.079Z,100567.28
2022-08-17T00:09:44.877Z,100566.22
2022-08-17T00:12:41.997Z,100571.66
2022-08-17T00:14:57.931Z,100577.31
2022-08-17T00:17:24.481Z,100573.81
2022-08-17T00:19:51.048Z,100578.09
2022-08-17T00:22:33.992Z,100564.66
2022-08-17T00:25:07.363Z,100578.94
2022-08-17T00:27:34.411Z,100573.81
2022-08-17T00:30:00.963Z,100576.25
2022-08-17T00:33:14.351Z,100578.66
2022-08-17T00:35:17.639Z,100579.75
2022-08-17T00:37:44.221Z,100573.28
2022-08-17T00:40:13.672Z,100570.03
2022-08-17T00:42:40.406Z,100570.84
2022-08-17T00:45:09.369Z,100569.53
2022-08-17T00:47:36.134Z,100573.00
2022-08-17T00:50:04.678Z,100571.91
2022-08-17T00:52:39.891Z,100567.88
2022-08-17T00:55:08.580Z,100572.19
2022-08-17T00:57:45.336Z,100574.34
2022-08-17T01:00:17.592Z,100577.06
2022-08-17T01:02:46.610Z,100581.34
2022-08-17T01:05:25.547Z,100585.94
2022-08-17T01:07:53.713Z,100581.63
2022-08-17T01:11:00.532Z,100578.41
2022-08-17T01:13:14.178Z,100577.31
2022-08-17T01:15:46.564Z,100582.97
2022-08-17T01:18:14.227Z,100582.44
2022-08-17T01:20:52.651Z,100581.09
2022-08-17T01:23:23.344Z,100582.72
2022-08-17T01:25:54.326Z,100589.44
2022-08-17T01:28:52.317Z,100581.59
2022-08-17T01:31:09.615Z,100582.13
2022-08-17T01:33:36.552Z,100580.25
2022-08-17T01:36:04.283Z,100573.81
2022-08-17T01:38:31.925Z,100579.19
2022-08-17T01:41:03.688Z,100579.72
2022-08-17T01:43:37.501Z,100579.44
2022-08-17T01:46:04.268Z,100586.16
2022-08-17T01:48:36.364Z,100578.91
2022-08-17T01:51:05.868Z,100574.06
2022-08-17T01:53:36.951Z,100585.09
2022-08-17T01:56:10.402Z,100581.88
2022-08-17T01:58:37.700Z,100592.88
2022-08-17T02:01:05.994Z,100583.47
2022-08-17T02:03:34.563Z,100589.94
2022-08-17T02:06:02.290Z,100588.59
2022-08-17T02:08:37.246Z,100587.53
2022-08-17T02:11:12.260Z,100598.31
2022-08-17T02:13:39.227Z,100598.56
2022-08-17T02:16:06.120Z,100593.72
2022-08-17T02:18:32.922Z,100605.56
2022-08-17T02:20:59.561Z,100595.84
2022-08-17T02:23:30.257Z,100602.31
2022-08-17T02:25:59.583Z,100605.31
2022-08-17T02:28:28.324Z,100606.09
2022-08-17T02:31:01.045Z,100605.00
2022-08-17T02:33:41.914Z,100610.38
2022-08-17T02:36:11.606Z,100612.78
2022-08-17T02:38:39.847Z,100626.22
2022-08-17T02:41:07.459Z,100620.06
2022-08-17T02:43:33.992Z,100621.16
2022-08-17T02:46:00.596Z,100620.63
2022-08-17T02:48:28.023Z,100627.38
2022-08-17T02:50:57.452Z,100620.38
2022-08-17T02:53:24.012Z,100622.50
2022-08-17T02:55:52.488Z,100615.72
2022-08-17T02:58:34.786Z,100617.34
2022-08-17T03:01:08.140Z,100618.19
2022-08-17T03:03:35.450Z,100621.94
2022-08-17T03:06:02.416Z,100618.97
2022-08-17T03:08:29.685Z,100608.16
2022-08-17T03:10:56.641Z,100609.75
2022-08-17T03:13:23.327Z,100615.69
2022-08-17T03:15:50.578Z,100608.16
2022-08-17T03:18:25.482Z,100607.59
2022-08-17T03:20:58.840Z,100610.56
2022-08-17T03:23:27.405Z,100617.03
2022-08-17T03:25:54.598Z,100615.94
2022-08-17T03:28:22.506Z,100610.03
2022-08-17T03:30:49.451Z,100614.09
2022-08-17T03:33:16.909Z,100607.84
2022-08-17T03:35:44.150Z,100610.28
2022-08-17T03:38:12.465Z,100606.53
2022-08-17T03:40:56.388Z,100601.16
2022-08-17T03:43:28.217Z,100601.09
2022-08-17T03:46:28.248Z,100603.28
2022-08-17T03:49:18.806Z,100619.84
2022-08-17T03:52:03.962Z,100612.81
2022-08-17T03:54:49.060Z,100613.34
2022-08-17T03:57:16.395Z,100614.47
2022-08-17T03:59:43.050Z,100611.41
2022-08-17T04:02:15.828Z,100611.19
2022-08-17T04:04:42.683Z,100613.94
2022-08-17T04:07:09.800Z,100609.34
2022-08-17T04:09:36.642Z,100612.88
2022-08-17T04:12:05.118Z,100613.16
2022-08-17T04:14:37.852Z,100606.91
2022-08-17T04:17:19.760Z,100595.25
2022-08-17T04:19:46.678Z,100597.69
2022-08-17T04:22:32.478Z,100603.94
2022-08-17T04:25:14.136Z,100626.28
2022-08-17T04:27:40.672Z,100635.28
2022-08-17T04:30:07.898Z,100626.91
2022-08-17T04:33:03.813Z,100623.44
2022-08-17T04:35:36.997Z,100631.47
2022-08-17T04:38:04.385Z,100636.00
2022-08-17T04:40:49.618Z,100636.78
2022-08-17T04:43:19.816Z,100627.94
2022-08-17T04:45:57.699Z,100648.63
2022-08-17T04:48:37.541Z,100641.56
2022-08-17T04:51:11.080Z,100641.00
2022-08-17T04:53:39.362Z,100637.81
2022-08-17T04:56:06.263Z,100647.53
2022-08-17T04:58:33.043Z,100648.19
2022-08-17T05:01:00.087Z,100646.09
2022-08-17T05:03:26.902Z,100646.34
2022-08-17T05:05:53.742Z,100645.34
2022-08-17T05:08:20.932Z,100658.47
2022-08-17T05:10:48.715Z,100670.34
2022-08-17T05:13:22.863Z,100667.69
2022-08-17T05:15:54.889Z,100674.44
2022-08-17T05:18:21.845Z,100687.38
2022-08-17T05:20:51.150Z,100695.09
2022-08-17T05:23:21.744Z,100690.75
2022-08-17T05:25:51.277Z,100696.41
2022-08-17T05:28:23.476Z,100698.84
2022-08-17T05:30:59.227Z,100702.34
2022-08-17T05:33:30.023Z,100692.41
2022-08-17T05:35:58.777Z,100695.16
2022-08-17T05:38:27.714Z,100701.44
2022-08-17T05:40:55.239Z,100698.56
2022-08-17T05:43:34.487Z,100704.53
2022-08-17T05:46:20.394Z,100702.09
2022-08-17T05:48:54.065Z,100709.38
2022-08-17T05:51:44.895Z,100711.31
2022-08-17T05:54:26.760Z,100716.94
2022-08-17T05:57:11.553Z,100723.16
2022-08-17T05:59:48.229Z,100709.75
2022-08-17T06:02:36.560Z,100705.81
2022-08-17T06:05:06.233Z,100706.47
2022-08-17T06:07:38.893Z,100718.19
2022-08-17T06:10:08.167Z,100716.59
2022-08-17T06:13:02.708Z,100728.34
2022-08-17T06:16:33.359Z,100730.41
2022-08-17T06:19:03.203Z,100733.28
2022-08-17T06:21:43.724Z,100734.97
2022-08-17T06:24:28.790Z,100739.91
2022-08-17T06:27:06.719Z,100740.75
2022-08-17T06:29:35.407Z,100733.41
2022-08-17T06:32:03.159Z,100736.34
2022-08-17T06:34:29.901Z,100737.69
2022-08-17T06:37:25.532Z,100732.53
2022-08-17T06:40:15.823Z,100731.16
2022-08-17T06:43:32.595Z,100729.84
2022-08-17T06:46:11.415Z,100734.59
2022-08-17T06:48:47.179Z,100718.31
2022-08-17T06:51:19.682Z,100731.38
2022-08-17T06:54:00.116Z,100719.34
2022-08-17T06:56:54.532Z,100715.84
2022-08-17T06:59:56.159Z,100718.38
2022-08-17T07:03:02.377Z,100722.09
2022-08-17T07:05:22.343Z,100724.19
2022-08-17T07:08:03.066Z,100728.31
2022-08-17T07:10:38.121Z,100723.09
2022-08-17T07:13:37.480Z,100718.47
2022-08-17T07:16:16.668Z,100715.75
2022-08-17T07:18:44.089Z,100702.41
2022-08-17T07:21:26.561Z,100700.50
2022-08-17T07:24:06.886Z,100696.16
2022-08-17T07:26:33.619Z,100702.63
2022-08-17T07:29:01.022Z,100693.97
2022-08-17T07:31:30.561Z,100691.25
2022-08-17T07:34:06.760Z,100701.41
2022-08-17T07:36:34.363Z,100701.78
2022-08-17T07:39:03.064Z,100704.50
2022-08-17T07:41:53.122Z,100702.25
2022-08-17T07:44:23.283Z,100699.28
2022-08-17T07:47:12.270Z,100700.63
2022-08-17T07:49:46.886Z,100701.38
2022-08-17T07:52:51.345Z,100710.16
2022-08-17T07:55:29.365Z,100710.97
2022-08-17T07:57:58.791Z,100699.25
2022-08-17T08:00:32.180Z,100701.25
2022-08-17T08:03:34.014Z,100709.63
2022-08-17T08:06:03.063Z,100711.81
2022-08-17T08:08:43.641Z,100712.94
2022-08-17T08:11:15.465Z,100706.91
2022-08-17T08:13:45.396Z,100715.44
2022-08-17T08:16:12.106Z,100724.03
2022-08-17T08:18:55.351Z,100716.34
2022-08-17T08:21:52.123Z,100712.31
2022-08-17T08:24:55.879Z,100716.00
2022-08-17T08:27:31.050Z,100717.53
2022-08-17T08:30:07.210Z,100695.25
2022-08-17T08:32:48.579Z,100696.44
2022-08-17T08:35:33.808Z,100716.56
2022-08-17T08:38:12.160Z,100718.16
2022-08-17T08:41:16.175Z,100717.50
2022-08-17T08:44:10.850Z,100717.19
2022-08-17T08:46:40.659Z,100710.31
2022-08-17T08:50:03.002Z,100705.84
2022-08-17T08:52:45.082Z,100707.28
2022-08-17T08:55:22.322Z,100714.53
2022-08-17T08:57:57.768Z,100700.03
2022-08-17T09:00:26.436Z,100685.44
2022-08-17T09:03:51.219Z,100689.09
2022-08-17T09:06:32.132Z,100684.66
2022-08-17T09:09:22.847Z,100678.00
2022-08-17T09:12:16.844Z,100681.78
2022-08-17T09:15:17.736Z,100684.81
2022-08-17T09:19:03.544Z,100684.75
2022-08-17T09:21:18.195Z,100691.09
2022-08-17T09:24:00.137Z,100687.88
2022-08-17T09:26:54.461Z,100687.31
2022-08-17T09:29:25.495Z,100681.22
2022-08-17T09:32:03.577Z,100677.25
2022-08-17T09:34:36.221Z,100674.75
2022-08-17T09:37:07.896Z,100678.63
2022-08-17T09:39:44.902Z,100679.13
2022-08-17T09:42:19.849Z,100669.47
2022-08-17T09:45:00.911Z,100669.41
2022-08-17T09:47:29.890Z,100679.25
2022-08-17T09:50:01.696Z,100673.69
2022-08-17T09:52:30.479Z,100665.97
2022-08-17T09:54:59.435Z,100663.50
2022-08-17T09:58:12.171Z,100678.41
2022-08-17T10:00:53.122Z,100671.41
2022-08-17T10:03:19.831Z,100677.28
2022-08-17T10:06:06.824Z,100678.47
2022-08-17T10:08:43.864Z,100678.31
2022-08-17T10:11:48.159Z,100689.81
2022-08-17T10:14:38.013Z,100684.78
2022-08-17T10:17:16.579Z,100685.78
2022-08-17T10:20:12.335Z,100679.97
2022-08-17T10:23:14.972Z,100680.56
2022-08-17T10:26:04.981Z,100665.84
2022-08-17T10:28:39.763Z,100675.91
2022-08-17T10:34:02.175Z,100682.81
2022-08-17T10:36:55.651Z,100679.78
2022-08-17T10:39:54.723Z,100676.31
2022-08-17T10:42:30.869Z,100677.91
2022-08-17T10:45:18.183Z,100666.50
2022-08-17T10:48:04.766Z,100664.41
2022-08-17T10:50:59.805Z,100673.41
2022-08-17T10:53:32.518Z,100669.84
2022-08-17T10:56:14.139Z,100672.59
2022-08-17T10:58:58.951Z,100670.78
2022-08-17T11:01:34.490Z,100668.78
2022-08-17T11:04:21.184Z,100671.78
2022-08-17T11:07:17.681Z,100661.19
2022-08-17T11:10:05.896Z,100670.44
2022-08-17T11:12:55.210Z,100661.41
2022-08-17T11:15:41.250Z,100665.47
2022-08-17T11:18:14.490Z,100657.28
2022-08-17T11:21:20.411Z,100653.78
2022-08-17T11:24:11.980Z,100659.22
2022-08-17T11:26:46.222Z,100656.00
2022-08-17T11:29:27.486Z,100653.97
2022-08-17T11:32:07.812Z,100648.03
2022-08-17T11:34:39.999Z,100644.66
2022-08-17T11:37:38.811Z,100642.09
2022-08-17T11:40:29.848Z,100646.66
2022-08-17T11:43:05.387Z,100646.19
2022-08-17T11:46:07.159Z,100644.50
2022-08-17T11:49:21.533Z,100653.75
2022-08-17T11:52:01.188Z,100648.47
2022-08-17T11:54:33.634Z,100647.38
2022-08-17T11:57:26.374Z,100650.75
2022-08-17T12:00:11.884Z,100645.59
2022-08-17T12:02:48.217Z,100633.91
2022-08-17T12:05:17.994Z,100635.44
2022-08-17T12:08:12.885Z,100635.69
2022-08-17T12:10:51.892Z,100627.09
2022-08-17T12:13:19.395Z,100627.09
2022-08-17T12:15:50.553Z,100615.22
2022-08-17T12:18:25.239Z,100626.50
2022-08-17T12:21:17.680Z,100626.78
2022-08-17T12:24:05.274Z,100634.13
2022-08-17T12:26:34.583Z,100624.75
2022-08-17T12:29:38.868Z,100626.03
2022-08-17T12:31:55.733Z,100617.56
2022-08-17T12:34:43.341Z,100617.78
2022-08-17T12:37:27.474Z,100614.03
2022-08-17T12:39:58.720Z,100616.16
2022-08-17T12:42:32.139Z,100618.03
2022-08-17T12:44:58.979Z,100620.94
2022-08-17T12:47:26.582Z,100610.34
2022-08-17T12:50:29.485Z,100612.34
2022-08-17T12:53:01.751Z,100614.13
2022-08-17T12:55:32.683Z,100608.44
2022-08-17T12:58:01.863Z,100603.91
2022-08-17T13:00:41.115Z,100604.38
2022-08-17T13:03:21.184Z,100604.38
2022-08-17T13:06:02.796Z,100596.66
2022-08-17T13:08:29.265Z,100607.34
2022-08-17T13:11:05.139Z,100603.84
2022-08-17T13:13:35.665Z,100600.59
2022-08-17T13:16:12.761Z,100603.69
2022-08-17T13:18:44.394Z,100600.25
2022-08-17T13:21:19.494Z,100598.91
2022-08-17T13:24:19.700Z,100606.84
2022-08-17T13:26:46.172Z,100596.19
2022-08-17T13:29:37.077Z,100587.59
2022-08-17T13:32:13.147Z,100587.78
2022-08-17T13:35:28.246Z,100575.00
2022-08-17T13:38:05.000Z,100576.53
2022-08-17T13:40:38.013Z,100567.72
2022-08-17T13:43:05.328Z,100569.13
2022-08-17T13:45:39.248Z,100556.44
2022-08-17T13:48:16.558Z,100555.28
2022-08-17T13:50:43.117Z,100548.47
2022-08-17T13:53:23.123Z,100529.31
2022-08-17T13:55:58.321Z,100511.91
2022-08-17T13:58:51.966Z,100508.84
2022-08-17T14:01:53.590Z,100481.09
2022-08-17T14:04:28.087Z,100456.78
2022-08-17T14:06:57.051Z,100439.75
2022-08-17T14:09:28.083Z,100414.63
2022-08-17T14:11:57.053Z,100410.34
2022-08-17T14:14:24.673Z,100433.75
2022-08-17T14:16:53.027Z,100449.56
2022-08-17T14:19:21.889Z,100456.25
2022-08-17T14:21:49.213Z,100466.19
2022-08-17T14:24:31.483Z,100471.59
2022-08-17T14:26:59.818Z,100468.69
2022-08-17T14:29:29.645Z,100473.13
2022-08-17T14:31:57.040Z,100472.78
2022-08-17T14:34:24.781Z,100484.72
2022-08-17T14:36:52.317Z,100491.06
2022-08-17T14:39:19.841Z,100483.91
2022-08-17T14:41:46.719Z,100495.66
2022-08-17T14:44:13.411Z,100507.78
2022-08-17T14:46:41.710Z,100512.34
2022-08-17T14:49:11.710Z,100516.56
2022-08-17T14:51:44.066Z,100512.59
2022-08-17T14:54:32.776Z,100515.59
2022-08-17T14:57:23.322Z,100515.19
2022-08-17T14:59:46.778Z,100523.25
2022-08-17T15:02:13.657Z,100526.34
2022-08-17T15:04:45.346Z,100534.66
2022-08-17T15:07:12.269Z,100526.91
2022-08-17T15:09:39.045Z,100530.38
2022-08-17T15:12:09.161Z,100534.56
2022-08-17T15:14:36.271Z,100535.63
2022-08-17T15:17:03.717Z,100531.72
2022-08-17T15:19:30.302Z,100523.25
2022-08-17T15:21:57.032Z,100524.38
2022-08-17T15:24:23.586Z,100530.13
2022-08-17T15:26:50.199Z,100515.97
2022-08-17T15:29:16.970Z,100510.53
2022-08-17T15:31:43.729Z,100513.13
2022-08-17T15:34:10.300Z,100506.19
2022-08-17T15:36:37.046Z,100507.97
2022-08-17T15:39:05.403Z,100493.84
2022-08-17T15:41:32.038Z,100483.03
2022-08-17T15:43:58.673Z,100486.56
2022-08-17T15:46:26.286Z,100482.88
2022-08-17T15:48:58.155Z,100473.00
2022-08-17T15:51:26.397Z,100479.91
2022-08-17T15:54:04.581Z,100482.03
2022-08-17T15:56:48.600Z,100470.38
2022-08-17T15:59:15.355Z,100476.41
2022-08-17T16:03:01.456Z,100483.28
2022-08-17T16:04:30.718Z,100486.41
2022-08-17T16:06:58.855Z,100489.28
2022-08-17T16:09:25.339Z,100496.72
2022-08-17T16:11:55.380Z,100497.09
2022-08-17T16:14:22.618Z,100498.19
2022-08-17T16:16:50.561Z,100493.72
2022-08-17T16:19:17.246Z,100498.69
2022-08-17T16:21:43.779Z,100499.00
2022-08-17T16:24:13.213Z,100496.28
2022-08-17T16:26:40.930Z,100479.13
2022-08-17T16:29:08.116Z,100474.94
2022-08-17T16:31:36.139Z,100465.31
2022-08-17T16:34:15.889Z,100449.31
2022-08-17T16:36:51.770Z,100429.25
2022-08-17T16:39:29.019Z,100431.56
2022-08-17T16:41:56.465Z,100437.47
2022-08-17T16:44:23.517Z,100431.09
2022-08-17T16:46:50.443Z,100438.13
2022-08-17T16:49:35.992Z,100430.44
2022-08-17T17:04:12.863Z,100467.91
2022-08-17T17:07:06.030Z,100444.00
2022-08-17T17:09:38.235Z,100452.00
2022-08-17T17:12:10.839Z,100478.25
2022-08-17T17:14:44.854Z,100479.44
2022-08-17T17:17:29.825Z,100479.16
2022-08-17T17:20:09.823Z,100477.47
2022-08-17T17:23:00.455Z,100474.63
2022-08-17T17:25:45.299Z,100462.22
2022-08-17T17:28:30.082Z,100464.94
2022-08-17T17:31:18.568Z,100470.41
2022-08-17T17:33:48.994Z,100484.69
2022-08-17T17:36:40.292Z,100494.78
2022-08-17T17:39:15.551Z,100488.34
2022-08-17T17:41:51.278Z,100488.25
2022-08-17T17:44:23.631Z,100558.19
2022-08-17T17:46:57.476Z,100643.78
2022-08-17T17:49:28.662Z,100683.44
2022-08-17T17:52:14.262Z,100727.81
2022-08-17T17:55:05.054Z,100727.19
2022-08-17T17:57:54.476Z,100735.06
2022-08-17T18:00:23.544Z,100738.19
2022-08-17T18:03:15.184Z,100752.09
2022-08-17T18:05:58.180Z,100747.13
2022-08-17T18:08:55.574Z,100748.72
2022-08-17T18:11:35.114Z,100746.25
2022-08-17T18:14:21.077Z,100773.88
2022-08-17T18:16:55.007Z,100775.19
2022-08-17T18:19:25.082Z,100753.91
2022-08-17T18:22:02.877Z,100762.53
2022-08-17T18:24:36.187Z,100751.22
2022-08-17T18:27:21.073Z,100751.75
2022-08-17T18:29:48.880Z,100756.56
2022-08-17T18:32:22.446Z,100766.56
2022-08-17T18:34:59.423Z,100764.69
2022-08-17T18:37:49.316Z,100761.44
2022-08-17T18:40:21.604Z,100783.81
2022-08-17T18:43:00.421Z,100777.69
2022-08-17T18:45:39.012Z,100767.88
2022-08-17T18:48:22.556Z,100757.09
2022-08-17T18:50:51.385Z,100754.72
2022-08-17T18:53:33.537Z,100744.03
2022-08-17T18:56:22.014Z,100765.63
2022-08-17T18:59:18.255Z,100750.38
2022-08-17T19:01:53.218Z,100737.91
2022-08-17T19:04:37.439Z,100725.28
2022-08-17T19:07:21.889Z,100724.22
2022-08-17T19:09:59.622Z,100726.38
2022-08-17T19:12:42.835Z,100719.00
2022-08-17T19:15:12.441Z,100743.94
2022-08-17T19:17:48.302Z,100742.53
2022-08-17T19:20:22.651Z,100731.25
2022-08-17T19:22:56.385Z,100721.28
2022-08-17T19:25:36.145Z,100715.75
2022-08-17T19:28:21.488Z,100707.25
2022-08-17T19:30:49.410Z,100709.03
2022-08-17T19:33:17.951Z,100711.84
2022-08-17T19:36:08.539Z,100702.66
2022-08-17T19:38:45.728Z,100690.22
2022-08-17T19:41:22.739Z,100694.28
2022-08-17T19:43:58.237Z,100697.25
2022-08-17T19:46:49.912Z,100708.56
2022-08-17T19:49:40.710Z,100702.09
2022-08-17T19:52:26.285Z,100705.59
2022-08-17T19:55:31.701Z,100708.56
2022-08-17T19:58:07.553Z,100699.94
2022-08-17T20:00:47.852Z,100700.22
2022-08-17T20:03:20.285Z,100696.16
2022-08-17T20:06:11.312Z,100691.59
2022-08-17T20:08:41.138Z,100692.94
2022-08-17T20:11:15.254Z,100703.19
2022-08-17T20:13:49.025Z,100709.13
2022-08-17T20:16:18.200Z,100706.41
2022-08-17T20:18:53.583Z,100701.03
2022-08-17T20:21:34.106Z,100697.50
2022-08-17T20:24:20.272Z,100685.38
2022-08-17T20:26:58.942Z,100679.19
2022-08-17T20:29:39.760Z,100679.47
2022-08-17T20:32:32.994Z,100686.47
2022-08-17T20:35:18.135Z,100684.84
2022-08-17T20:38:12.221Z,100684.31
2022-08-17T20:40:53.795Z,100709.94
2022-08-17T20:43:49.009Z,100692.94
2022-08-17T20:46:30.430Z,100685.94
2022-08-17T20:49:14.632Z,100683.28
2022-08-17T20:52:01.245Z,100676.22
2022-08-17T20:54:49.842Z,100683.50
2022-08-17T20:57:31.872Z,100686.91
2022-08-17T21:00:15.998Z,100690.19
2022-08-17T21:02:49.569Z,100695.63
2022-08-17T21:05:30.229Z,100693.75
2022-08-17T21:08:00.890Z,100672.47
2022-08-17T21:10:27.332Z,100679.47
2022-08-17T21:13:13.271Z,100677.53
2022-08-17T21:15:54.872Z,100666.47
2022-08-17T21:18:56.591Z,100664.81
2022-08-17T21:21:48.429Z,100663.50
2022-08-17T21:24:36.634Z,100664.91
2022-08-17T21:27:12.288Z,100681.91
2022-08-17T21:30:10.033Z,100665.44
2022-08-17T21:32:40.410Z,100656.72
2022-08-17T21:35:12.319Z,100643.50
2022-08-17T21:37:39.201Z,100642.44
2022-08-17T21:40:18.329Z,100636.00
2022-08-17T21:42:48.683Z,100642.50
2022-08-17T21:45:24.238Z,100644.53
2022-08-17T21:48:07.351Z,100654.59
2022-08-17T21:50:35.613Z,100655.75
2022-08-17T21:53:04.296Z,100656.25
2022-08-17T21:55:32.780Z,100654.63
2022-08-17T21:58:14.846Z,100664.31
2022-08-17T22:00:44.484Z,100658.16
2022-08-17T22:03:23.810Z,100660.34
2022-08-17T22:05:51.473Z,100656.16
2022-08-17T22:08:21.826Z,100664.78
2022-08-17T22:10:51.146Z,100673.78
2022-08-17T22:13:17.834Z,100674.06
2022-08-17T22:16:28.164Z,100678.13
2022-08-17T22:18:53.821Z,100682.97
2022-08-17T22:21:22.559Z,100684.03
2022-08-17T22:24:14.853Z,100689.97
2022-08-17T22:27:01.447Z,100689.69
2022-08-17T22:29:43.379Z,100690.25
2022-08-17T22:32:10.508Z,100690.78
2022-08-17T22:34:38.470Z,100692.16
2022-08-17T22:37:27.969Z,100693.47
2022-08-17T22:39:59.166Z,100693.22
2022-08-17T22:42:25.850Z,100697.25
2022-08-17T22:44:54.404Z,100693.47
2022-08-17T22:47:40.850Z,100682.41
2022-08-17T22:50:25.333Z,100676.22
2022-08-17T22:53:22.763Z,100670.03
2022-08-17T22:56:14.652Z,100671.91
2022-08-17T22:59:11.104Z,100663.81
2022-08-17T23:01:39.080Z,100667.03
2022-08-17T23:04:07.433Z,100657.06
2022-08-17T23:06:36.480Z,100651.94
2022-08-17T23:09:05.876Z,100653.00
2022-08-17T23:11:47.839Z,100667.34
2022-08-17T23:14:19.226Z,100664.34
2022-08-17T23:16:46.972Z,100670.03
2022-08-17T23:19:18.526Z,100669.22
2022-08-17T23:21:45.114Z,100678.94
2022-08-17T23:24:17.017Z,100672.44
2022-08-17T23:26:43.583Z,100661.66
2022-08-17T23:29:10.101Z,100644.97
2022-08-17T23:31:38.581Z,100640.66
2022-08-17T23:34:10.210Z,100634.66
2022-08-17T23:36:36.690Z,100623.91
2022-08-17T23:39:04.856Z,100619.56
2022-08-17T23:41:40.019Z,100607.31
2022-08-17T23:44:07.310Z,100622.28
2022-08-17T23:46:34.615Z,100631.75
2022-08-17T23:49:01.423Z,100634.47
2022-08-17T23:51:31.848Z,100637.69
2022-08-17T23:54:09.352Z,100634.47
2022-08-17T23:56:45.320Z,100625.81
2022-08-17T23:59:13.499Z,100616.66
